Airfield :
LOGIN :

Register | Disclaimer

   EN    FR    IT 

 










Legend :    VFR   Marginal VFR   IFR   Intensive IFR   Very Intensive IFR
Visi :
Ceiling :
>= 8 km
>= 3000ft
5 to 8 km
1000 to 3000 ft
1500m to 5 km
500 to 1000 ft
800 to 1500m
200 to 500 ft
< 800m
< 200 ft
Symbols :   Thunderstorms  Fog  Heavy snow  Heavy precipitations  Wind > 20 kt
SIGMETs :     Misc.  Thunderstorms  Icing  Turbulence  Mountain Waves  Volcanic Ashes







- Airport Elevation : 313 ft
- IATA code : LEH
- Download approach charts


LFOH - Le Havre Octeville

CURRENT METAR :
  • 162200Z AUTO 33014KT 9999 SCT024 SCT039 BKN130 07/03 Q1022 NOSIG

EXPIRED METARs :
  • 162130Z AUTO 33015KT 9999 FEW023 BKN130 07/04 Q1022 NOSIG
  • 162100Z AUTO 33015KT 9999 FEW025/// BKN043/// OVC130/// ///TCU 07/03 Q1021 TEMPO 33015G25KT 3000 SHRA BKN008 BKN015CB
  • 162030Z AUTO 33017KT 9999 FEW025/// SCT032/// BKN041/// ///TCU 07/04 Q1022 TEMPO 33015G25KT 3000 SHRA BKN008 BKN015CB
  • 162000Z AUTO 29012KT 260V320 9999 SCT026/// BKN039/// BKN100/// ///CB 07/04 Q1021 TEMPO 33015G25KT 3000 SHRA BKN008 BKN015CB
  • 161930Z AUTO 30017G29KT 270V340 9999 -RA FEW022/// BKN030/// BKN037/// ///TCU 06/04 Q1022 TEMPO 3000 SHRA BKN008 BKN015CB

TAF TAF LFOH
Valid from the 16 at 12:00 until the 17 at 12:00 UTC


161100Z 1612/1712 33012KT 9999 BKN025
TEMPO 1619/1622 33015G25KT 3000 SHRA BKN008 BKN015CB
BECMG 1705/1708 20005KT
ATIS : +33 2 35 54 64 93
No reported NOTAMs for that airfield.



MET'MAP, your aeronautical weather chart ! - Copyright ORBIFLY December 2007 - Disclaimer

ORBIFLY MET'MAP TEAM :

Programming & Development : Alexandra Zaïnal
Concept & Development : Baudouin d'Aumeries
Co-Development & Prog : Marc-Olivier Méhu
Technical & hardware support : Manuel Goepfert

Contact : metmap@orbifly.com




SOURCES & CREDITS :

   NOAA